createdAt,value
2023-05-13T05:02:50.648Z,12.39
2023-05-13T05:05:18.603Z,12.40
2023-05-13T05:07:46.701Z,12.39
2023-05-13T05:10:15.227Z,12.40
2023-05-13T05:12:47.278Z,12.38
2023-05-13T05:15:18.054Z,12.37
2023-05-13T05:17:48.495Z,12.36
2023-05-13T05:20:15.158Z,12.35
2023-05-13T05:22:43.122Z,12.43
2023-05-13T05:25:11.949Z,12.44
2023-05-13T05:27:39.418Z,12.51
2023-05-13T05:30:07.440Z,12.57
2023-05-13T05:32:36.082Z,12.75
2023-05-13T05:35:04.536Z,12.86
2023-05-13T05:37:33.278Z,12.92
2023-05-13T05:40:00.482Z,13.06
2023-05-13T05:42:28.489Z,13.12
2023-05-13T05:44:55.049Z,13.24
2023-05-13T05:47:21.965Z,13.34
2023-05-13T05:49:49.443Z,13.49
2023-05-13T05:52:18.542Z,13.58
2023-05-13T05:54:46.063Z,13.74
2023-05-13T05:57:14.249Z,13.92
2023-05-13T05:59:41.330Z,14.05
2023-05-13T06:02:08.715Z,14.19
2023-05-13T06:04:36.868Z,14.37
2023-05-13T06:07:03.533Z,14.54
2023-05-13T06:09:30.769Z,14.70
2023-05-13T06:11:57.478Z,14.88
2023-05-13T06:14:24.433Z,15.16
2023-05-13T06:16:52.508Z,15.42
2023-05-13T06:19:22.586Z,15.61
2023-05-13T06:21:50.110Z,15.85
2023-05-13T06:24:17.399Z,16.01
2023-05-13T06:26:44.441Z,16.20
2023-05-13T06:29:15.151Z,16.35
2023-05-13T06:31:42.107Z,16.51
2023-05-13T06:34:10.866Z,16.77
2023-05-13T06:36:37.486Z,17.02
2023-05-13T06:39:07.363Z,17.34
2023-05-13T06:41:35.610Z,17.57
2023-05-13T06:44:09.068Z,17.92
2023-05-13T06:46:39.373Z,18.34
2023-05-13T06:49:06.929Z,18.53
2023-05-13T06:51:34.836Z,18.62
2023-05-13T06:54:02.321Z,18.74
2023-05-13T06:56:30.175Z,19.04
2023-05-13T06:58:57.482Z,19.39
2023-05-13T07:01:24.145Z,19.58
2023-05-13T07:03:51.610Z,19.76
2023-05-13T07:06:18.422Z,19.77
2023-05-13T07:08:46.207Z,19.91
2023-05-13T07:11:14.153Z,20.11
2023-05-13T07:13:41.482Z,20.06
2023-05-13T07:16:08.108Z,20.03
2023-05-13T07:18:35.714Z,20.11
2023-05-13T07:21:02.489Z,20.05
2023-05-13T07:23:30.325Z,20.08
2023-05-13T07:25:58.431Z,20.29
2023-05-13T07:28:25.861Z,20.35
2023-05-13T07:30:53.522Z,20.55
2023-05-13T07:33:20.930Z,20.73
2023-05-13T07:35:47.505Z,20.75
2023-05-13T07:38:15.076Z,20.75
2023-05-13T07:40:41.859Z,20.79
2023-05-13T07:43:09.833Z,21.01
2023-05-13T07:45:36.739Z,21.51
2023-05-13T07:48:04.259Z,21.65
2023-05-13T07:50:31.429Z,21.84
2023-05-13T07:52:58.710Z,22.12
2023-05-13T07:55:25.307Z,22.12
2023-05-13T07:57:52.473Z,21.96
2023-05-13T08:00:19.186Z,21.60
2023-05-13T08:02:46.444Z,21.43
2023-05-13T08:05:13.456Z,21.70
2023-05-13T08:07:40.664Z,21.89
2023-05-13T08:10:07.776Z,22.05
2023-05-13T08:12:36.332Z,22.22
2023-05-13T08:15:05.956Z,22.18
2023-05-13T08:17:33.568Z,22.12
2023-05-13T08:20:01.201Z,22.10
2023-05-13T08:22:28.411Z,22.25
2023-05-13T08:24:55.043Z,22.30
2023-05-13T08:27:22.130Z,22.48
2023-05-13T08:29:48.657Z,22.87
2023-05-13T08:32:15.978Z,22.96
2023-05-13T08:34:42.937Z,23.10
2023-05-13T08:37:10.478Z,23.16
2023-05-13T08:39:37.788Z,23.09
2023-05-13T08:42:06.345Z,23.25
2023-05-13T08:44:39.789Z,23.00
2023-05-13T08:47:16.725Z,22.62
2023-05-13T08:49:44.097Z,22.50
2023-05-13T08:52:12.301Z,22.40
2023-05-13T08:54:40.109Z,22.72
2023-05-13T08:57:06.750Z,22.69
2023-05-13T08:59:33.912Z,22.80
2023-05-13T09:02:03.335Z,22.93
2023-05-13T09:04:31.885Z,23.12
2023-05-13T09:06:58.826Z,23.31
2023-05-13T09:09:26.245Z,23.33
2023-05-13T09:11:52.977Z,23.32
2023-05-13T09:14:20.265Z,23.07
2023-05-13T09:16:47.616Z,22.83
2023-05-13T09:19:15.000Z,22.90
2023-05-13T09:21:43.914Z,23.00
2023-05-13T09:24:19.197Z,22.87
2023-05-13T09:26:46.387Z,22.63
2023-05-13T09:29:25.325Z,22.67
2023-05-13T09:31:56.308Z,23.01
2023-05-13T09:34:32.520Z,23.29
2023-05-13T09:37:04.981Z,23.30
2023-05-13T09:39:41.754Z,23.16
2023-05-13T09:42:19.404Z,23.14
2023-05-13T09:44:47.496Z,23.09
2023-05-13T09:47:14.917Z,23.09
2023-05-13T09:49:43.923Z,23.30
2023-05-13T09:52:11.692Z,23.53
2023-05-13T09:54:39.206Z,23.41
2023-05-13T09:57:06.786Z,23.66
2023-05-13T09:59:36.746Z,23.66
2023-05-13T10:02:07.955Z,23.79
2023-05-13T10:04:35.371Z,23.80
2023-05-13T10:07:03.838Z,23.98
2023-05-13T10:09:38.810Z,24.16
2023-05-13T10:12:07.819Z,23.97
2023-05-13T10:14:36.159Z,23.88
2023-05-13T10:17:02.970Z,23.96
2023-05-13T10:19:30.349Z,24.06
2023-05-13T10:21:58.405Z,23.95
2023-05-13T10:24:27.429Z,24.16
2023-05-13T10:26:54.588Z,24.41
2023-05-13T10:29:23.090Z,24.58
2023-05-13T10:31:51.744Z,24.59
2023-05-13T10:34:19.202Z,24.61
2023-05-13T10:37:03.702Z,24.68
2023-05-13T10:39:47.561Z,24.88
2023-05-13T10:42:32.090Z,24.75
2023-05-13T10:44:59.465Z,24.75
2023-05-13T10:47:27.712Z,25.11
2023-05-13T10:49:55.063Z,25.07
2023-05-13T10:52:21.650Z,25.07
2023-05-13T10:55:04.086Z,24.97
2023-05-13T10:57:37.293Z,25.03
2023-05-13T11:00:19.323Z,25.04
2023-05-13T11:02:46.206Z,25.17
2023-05-13T11:05:21.339Z,25.36
2023-05-13T11:07:57.683Z,25.45
2023-05-13T11:10:30.787Z,25.58
2023-05-13T11:13:15.819Z,25.33
2023-05-13T11:15:53.511Z,25.11
2023-05-13T11:18:28.898Z,25.12
2023-05-13T11:20:56.655Z,24.75
2023-05-13T11:23:23.283Z,24.61
2023-05-13T11:26:12.064Z,24.82
2023-05-13T11:29:04.408Z,24.96
2023-05-13T11:31:49.106Z,24.95
2023-05-13T11:34:18.002Z,24.95
2023-05-13T11:36:49.606Z,24.72
2023-05-13T11:39:18.938Z,24.44
2023-05-13T11:41:47.343Z,24.33
2023-05-13T11:44:16.463Z,24.57
2023-05-13T11:46:56.501Z,24.78
2023-05-13T11:49:46.824Z,24.69
2023-05-13T11:52:15.530Z,24.71
2023-05-13T11:54:44.680Z,24.72
2023-05-13T11:57:17.198Z,24.82
2023-05-13T11:59:56.759Z,24.71
2023-05-13T12:02:24.217Z,24.89
2023-05-13T12:04:52.555Z,25.05
2023-05-13T12:07:24.051Z,24.96
2023-05-13T12:09:51.824Z,25.22
2023-05-13T12:12:20.477Z,25.06
2023-05-13T12:14:50.024Z,24.93
2023-05-13T12:17:18.676Z,24.81
2023-05-13T12:20:08.732Z,25.07
2023-05-13T12:22:35.805Z,25.01
2023-05-13T12:25:38.783Z,24.84
2023-05-13T12:28:11.919Z,24.89
2023-05-13T12:30:41.491Z,24.88
2023-05-13T12:33:19.458Z,24.90
2023-05-13T12:35:48.685Z,24.77
2023-05-13T12:38:17.660Z,24.88
2023-05-13T12:40:45.373Z,24.97
2023-05-13T12:43:13.237Z,25.00
2023-05-13T12:45:44.902Z,25.01
2023-05-13T12:48:12.629Z,25.27
2023-05-13T12:50:39.184Z,25.19
2023-05-13T12:53:06.643Z,25.09
2023-05-13T12:55:33.556Z,25.18
2023-05-13T12:58:03.559Z,25.11
2023-05-13T13:00:30.819Z,25.30
2023-05-13T13:02:58.266Z,25.34
2023-05-13T13:05:25.627Z,25.45
2023-05-13T13:07:52.583Z,25.20
2023-05-13T13:10:19.312Z,25.04
2023-05-13T13:12:46.477Z,25.05
2023-05-13T13:15:13.111Z,25.08
2023-05-13T13:17:40.330Z,25.31
2023-05-13T13:20:07.738Z,25.25
2023-05-13T13:22:37.340Z,25.39
2023-05-13T13:25:05.777Z,25.35
2023-05-13T13:27:34.477Z,25.19
2023-05-13T13:30:01.077Z,25.12
2023-05-13T13:32:28.380Z,24.77
2023-05-13T13:34:55.115Z,24.70
2023-05-13T13:37:22.358Z,24.65
2023-05-13T13:39:48.919Z,24.84
2023-05-13T13:42:16.058Z,24.75
2023-05-13T13:44:42.622Z,24.74
2023-05-13T13:47:09.963Z,24.60
2023-05-13T13:49:36.579Z,24.58
2023-05-13T13:52:03.948Z,24.52
2023-05-13T13:54:30.554Z,24.51
2023-05-13T13:56:57.853Z,24.72
2023-05-13T13:59:24.479Z,24.77
2023-05-13T14:01:52.978Z,24.75
2023-05-13T14:04:22.832Z,24.69
2023-05-13T14:06:51.674Z,24.49
2023-05-13T14:09:18.584Z,24.50
2023-05-13T14:11:45.896Z,24.66
2023-05-13T14:14:12.724Z,24.87
2023-05-13T14:16:40.414Z,24.96
2023-05-13T14:19:07.163Z,24.59
2023-05-13T14:21:34.409Z,24.24
2023-05-13T14:24:01.840Z,24.01
2023-05-13T14:26:29.844Z,23.71
2023-05-13T14:28:57.357Z,23.51
2023-05-13T14:31:25.945Z,23.25
2023-05-13T14:33:53.189Z,23.09
2023-05-13T14:36:20.744Z,22.87
2023-05-13T14:38:47.926Z,22.76
2023-05-13T14:41:19.846Z,22.62
2023-05-13T14:43:47.678Z,22.54
2023-05-13T14:46:14.342Z,22.49
2023-05-13T14:48:41.621Z,22.40
2023-05-13T14:51:08.522Z,22.21
2023-05-13T14:53:36.004Z,22.19
2023-05-13T14:56:02.717Z,22.04
2023-05-13T14:58:30.001Z,22.06
2023-05-13T15:00:56.516Z,21.99
2023-05-13T15:03:24.001Z,21.93
2023-05-13T15:05:51.671Z,21.83
2023-05-13T15:08:19.072Z,21.88
2023-05-13T15:10:46.018Z,21.85
2023-05-13T15:13:13.217Z,21.92
2023-05-13T15:15:39.895Z,21.91
2023-05-13T15:18:07.075Z,21.91
2023-05-13T15:20:33.900Z,21.88
2023-05-13T15:23:01.326Z,21.93
2023-05-13T15:25:27.834Z,21.88
2023-05-13T15:27:54.836Z,21.86
2023-05-13T15:30:22.314Z,21.91
2023-05-13T15:32:49.232Z,21.89
2023-05-13T15:35:17.504Z,21.85
2023-05-13T15:37:44.038Z,21.78
2023-05-13T15:40:11.876Z,21.73
2023-05-13T15:42:38.428Z,21.69
2023-05-13T15:45:05.864Z,21.70
2023-05-13T15:47:32.482Z,21.71
2023-05-13T15:49:59.748Z,21.69
2023-05-13T15:52:26.341Z,21.63
2023-05-13T15:54:53.525Z,21.62
2023-05-13T15:57:20.164Z,21.54
2023-05-13T15:59:47.450Z,21.47
2023-05-13T16:02:14.026Z,21.42
2023-05-13T16:04:41.357Z,21.47
2023-05-13T16:07:10.869Z,21.38
2023-05-13T16:09:39.478Z,21.24
2023-05-13T16:12:06.710Z,21.10
2023-05-13T16:14:34.023Z,21.02
2023-05-13T16:17:00.821Z,20.95
2023-05-13T16:19:28.276Z,20.98
2023-05-13T16:21:54.812Z,21.00
2023-05-13T16:24:22.755Z,20.97
2023-05-13T16:26:49.362Z,20.93
2023-05-13T16:29:16.625Z,20.94
2023-05-13T16:31:43.272Z,20.95
2023-05-13T16:34:10.604Z,20.96
2023-05-13T16:36:37.153Z,20.91
2023-05-13T16:39:04.644Z,20.91
2023-05-13T16:41:31.337Z,20.83
2023-05-13T16:43:58.141Z,20.79
2023-05-13T16:46:24.671Z,20.76
2023-05-13T16:48:51.936Z,20.74
2023-05-13T16:51:18.920Z,20.69
2023-05-13T16:53:46.185Z,20.68
2023-05-13T16:56:12.828Z,20.64
2023-05-13T16:58:40.084Z,20.62
2023-05-13T17:01:06.730Z,20.60
2023-05-13T17:03:33.967Z,20.63
2023-05-13T17:06:00.766Z,20.60
2023-05-13T17:08:27.642Z,20.58
2023-05-13T17:10:54.185Z,20.53
2023-05-13T17:13:21.693Z,20.51
2023-05-13T17:15:48.346Z,20.47
2023-05-13T17:18:16.171Z,20.41
2023-05-13T17:20:44.063Z,20.33
2023-05-13T17:23:14.378Z,20.31
2023-05-13T17:26:01.462Z,20.25
2023-05-13T17:28:37.501Z,20.15
2023-05-13T17:31:20.133Z,20.10
2023-05-13T17:34:13.524Z,20.07
2023-05-13T17:36:41.349Z,20.05
2023-05-13T17:39:45.725Z,19.99
2023-05-13T17:42:18.485Z,19.94
2023-05-13T17:44:54.927Z,19.91
2023-05-13T17:50:47.136Z,19.76
2023-05-13T17:53:14.259Z,19.73
2023-05-13T17:56:11.454Z,19.64
2023-05-13T17:58:38.748Z,19.59
2023-05-13T18:03:52.525Z,19.45
2023-05-13T18:06:36.997Z,19.42
2023-05-13T18:09:07.624Z,19.38
2023-05-13T18:11:44.020Z,19.32
2023-05-13T18:14:33.894Z,19.25
2023-05-13T18:17:05.011Z,19.20
2023-05-13T18:19:50.540Z,19.13
2023-05-13T18:22:17.492Z,19.05
2023-05-13T18:24:44.773Z,18.97
2023-05-13T18:27:19.104Z,18.92
2023-05-13T18:30:02.970Z,18.81
2023-05-13T18:32:29.568Z,18.76
2023-05-13T18:34:58.734Z,18.68
2023-05-13T18:37:48.828Z,18.60
2023-05-13T18:40:31.161Z,18.52
2023-05-13T18:42:58.126Z,18.45
2023-05-13T18:45:25.029Z,18.37
2023-05-13T18:47:52.392Z,18.28
2023-05-13T18:50:19.186Z,18.21
2023-05-13T18:52:56.048Z,18.13
2023-05-13T18:55:23.146Z,18.05
2023-05-13T18:57:53.069Z,17.96
2023-05-13T19:00:19.996Z,17.84
2023-05-13T19:02:50.518Z,17.75
2023-05-13T19:08:48.057Z,17.49
2023-05-13T19:11:14.663Z,17.41
2023-05-13T19:13:47.190Z,17.32
2023-05-13T19:16:15.207Z,17.23
2023-05-13T19:18:42.557Z,17.14
2023-05-13T19:21:09.187Z,17.04
2023-05-13T19:23:37.775Z,16.95
2023-05-13T19:26:04.412Z,16.85
2023-05-13T19:28:32.125Z,16.76
2023-05-13T19:30:58.804Z,16.68
2023-05-13T19:33:26.366Z,16.57
2023-05-13T19:35:52.956Z,16.48
2023-05-13T19:38:21.025Z,16.39
2023-05-13T19:40:48.002Z,16.29
2023-05-13T19:43:15.212Z,16.21
2023-05-13T19:45:41.884Z,16.15
2023-05-13T19:48:08.976Z,16.07
2023-05-13T19:50:35.545Z,15.96
2023-05-13T19:53:02.725Z,15.84
2023-05-13T19:55:29.294Z,15.75
2023-05-13T19:57:56.574Z,15.67
2023-05-13T20:00:23.751Z,15.59
2023-05-13T20:02:51.217Z,15.53
2023-05-13T20:05:17.924Z,15.45
2023-05-13T20:07:45.462Z,15.39
2023-05-13T20:10:12.178Z,15.31
2023-05-13T20:12:39.020Z,15.22
2023-05-13T20:15:06.632Z,15.10
2023-05-13T20:17:33.629Z,15.00
2023-05-13T20:20:00.335Z,14.87
2023-05-13T20:22:27.264Z,14.78
2023-05-13T20:24:54.819Z,14.67
2023-05-13T20:27:21.423Z,14.59
2023-05-13T20:29:49.370Z,14.50
